Предлагаем Вашему вниманию английскую версию страницы: AUTOTAF.ME 26233 - aviation weather forecast Vil'yandi

AUTOTAF 26233 - авиапрогноз Вильянди

Сегодня рассвет 04:39 UTC, восход солнца 05:21 UTC,
местный полдень 10:01 UTC, заход солнца 14:41 UTC,
наступление темноты 15:23 UTC.

Краткий прогноз 26233 на 9 часов

AUTOTAF.ME 26233 260800Z 2609/2618 17005G12MPS 9999 BKN014

Детальный прогноз 26233 на 24 часа

AUTOTAF.ME 26233 260800Z 2609/2709 17005G12MPS 9999 BKN014 TX13/2612Z TN10/2615Z      
  FM270000 16004MPS 5000 BR OVC014  
  BECMG 2704/2706 17008G16MPS  
  FM270900 18008G15MPS 9999 OVC013

Подробный табличный прогноз

Время (UTC) miniAUTOTAF на 3 ч WX FZLVL
M AGL
ICE TURB Т
(°С)
Тd
(°С)
f(%) QNH
(гПа)
WIND/T
06 17004MPS 5000 BR BKN004 BR 2850 MOD SFC/FL20 8 6 91 1012 ...
09 17005G12MPS 9999 BKN014 2850 MOD SFC/FL20 11 7 76 1011 ...
12 17007G12MPS 9999 BKN014 2250 FBL FL90/FL100 MOD SFC/FL20 13 8 72 1010 ...
15 17003MPS 9999 OVC014 2250 MOD FL170/FL180 MOD SFC/FL20 10 8 84 1010 ...
18 17004MPS 9999 OVC014 2250 FBL FL90/FL150 MOD SFC/FL20 10 8 88 1010 ...
21 17003MPS 9999 OVC014 2250 FBL FL90/FL110 MOD SFC/FL20 11 9 89 1010 ...
27.10.2020
00 16004MPS 5000 BR OVC014 BR 2250 FBL FL90/FL110 MOD SFC/FL20 11 9 89 1010 ...
03 16005G12MPS 5000 BR BKN013 BR 2100 FBL FL90/FL100 MOD SFC/FL90 10 9 90 1008 ...
06 17008G16MPS 5000 BR OVC013 BR 2100 FBL FL90/FL100 MOD SFC/FL20 10 9 89 1008 ...
09 18008G15MPS 9999 OVC013 2100 FBL FL90/FL110 MOD SFC/FL20 11 9 86 1007 ...
12 19005G12MPS 5000 -RA BR OVC012 -RA BR 2100 MOD FL90/FL120 MOD SFC/FL20 11 10 90 1009 ...
15 21004MPS 5000 -SHRA BR BKN006 OVC010CB -SHRA BR 1950 FBL FL90/FL100 MOD SFC/FL20 12 10 91 1009 ...
18 VRB02MPS 3000 -SHRA BR BKN005 BKN010CB -SHRA BR 1800 FBL FL70/FL150 10 9 96 1010 ...
21 VRB02MPS 5000 -RA BR OVC013 -RA BR 1650 MOD FL70/FL90 10 9 97 1009 ...
28.10.2020
00 27006MPS 3000 -SHRA BR BKN002 OVC010CB -SHRA BR 1500 MOD FL90/FL190 MOD SFC/FL20 9 8 96 1008 ...
03 23003MPS 9999 -SHRA BKN004 OVC010CB -SHRA 1350 MOD FL50/FL110 MOD FL30/FL40 8 7 91 1008 ...


Широта 58.4°, долгота 25.6°, высота 87 м абс.
Средняя высота рельефа местности 63 м абс.
Прогнозы обновляются четыре раза в сутки: в 02, 08, 14, 20 ч всемирного времени.


Выбрать прогноз по другой модели Вильянди
Онлайн-сводка гроз по Вильянди (для РФ и ближнего зарубежья)
Карта фактических гроз в окрестностях Вильянди
Динамические прогностические карты (ventusky.com)
Прогностическая карта высоты нижней границы облаков по Вильянди (windy.com)
Выбрать другой город

Прогноз предназначен для личного научно-познавательного использования частными лицами
и не предназначен для принятия важных решений и выполнения реальных полётов воздушных судов

При копировании или ином использовании любых материалов данного сайта ссылка на © meteocenter.asia обязательна.

1.08/1.5